createdAt,value
2019-01-15T00:00:30.685Z,97.50
2019-01-15T00:02:59.331Z,97.50
2019-01-15T00:05:30.254Z,97.50
2019-01-15T00:07:58.958Z,97.60
2019-01-15T00:10:28.660Z,97.50
2019-01-15T00:12:57.317Z,97.60
2019-01-15T00:15:25.974Z,97.70
2019-01-15T00:17:54.724Z,97.60
2019-01-15T00:20:23.380Z,97.60
2019-01-15T00:22:52.024Z,97.50
2019-01-15T00:25:20.726Z,97.50
2019-01-15T00:27:49.369Z,97.60
2019-01-15T00:30:18.432Z,97.50
2019-01-15T00:32:47.089Z,97.60
2019-01-15T00:35:15.752Z,97.60
2019-01-15T00:37:44.439Z,97.50
2019-01-15T00:40:15.664Z,97.80
2019-01-15T00:42:44.322Z,97.80
2019-01-15T00:45:14.697Z,97.70
2019-01-15T00:47:43.341Z,97.70
2019-01-15T00:50:15.909Z,97.80
2019-01-15T00:52:44.564Z,97.70
2019-01-15T00:55:13.349Z,97.80
2019-01-15T00:57:42.308Z,97.80
2019-01-15T01:00:14.099Z,97.70
2019-01-15T01:02:42.769Z,97.70
2019-01-15T01:05:11.803Z,97.80
2019-01-15T01:07:40.439Z,98.00
2019-01-15T01:10:10.700Z,97.80
2019-01-15T01:12:39.362Z,98.00
2019-01-15T01:15:13.441Z,98.10
2019-01-15T01:17:42.097Z,98.00
2019-01-15T01:20:13.020Z,98.10
2019-01-15T01:22:41.667Z,98.10
2019-01-15T01:25:12.018Z,98.20
2019-01-15T01:27:40.680Z,98.20
2019-01-15T01:30:12.660Z,98.30
2019-01-15T01:32:41.375Z,98.20
2019-01-15T01:35:11.476Z,98.30
2019-01-15T01:37:40.161Z,98.30
2019-01-15T01:40:11.762Z,98.30
2019-01-15T01:42:40.451Z,98.20
2019-01-15T01:45:10.960Z,98.30
2019-01-15T01:47:39.666Z,98.30
2019-01-15T01:50:10.221Z,98.20
2019-01-15T01:52:38.854Z,98.10
2019-01-15T01:55:09.644Z,98.10
2019-01-15T01:57:38.333Z,98.20
2019-01-15T02:00:12.790Z,98.20
2019-01-15T02:02:41.517Z,98.20
2019-01-15T02:05:10.183Z,98.20
2019-01-15T02:07:39.025Z,98.20
2019-01-15T02:10:10.728Z,98.00
2019-01-15T02:12:39.422Z,98.10
2019-01-15T02:15:11.058Z,98.20
2019-01-15T02:17:39.814Z,98.00
2019-01-15T02:20:10.753Z,98.10
2019-01-15T02:22:40.958Z,97.90
2019-01-15T02:25:10.154Z,97.90
2019-01-15T02:27:40.373Z,97.90
2019-01-15T02:30:19.660Z,97.90
2019-01-15T02:32:48.313Z,97.90
2019-01-15T02:35:16.953Z,97.80
2019-01-15T02:37:45.609Z,97.90
2019-01-15T02:40:15.943Z,97.90
2019-01-15T02:42:46.701Z,98.00
2019-01-15T02:45:20.046Z,97.90
2019-01-15T02:47:48.711Z,98.10
2019-01-15T02:50:18.887Z,97.90
2019-01-15T02:52:47.539Z,97.80
2019-01-15T02:55:17.782Z,97.80
2019-01-15T02:57:46.444Z,97.90
2019-01-15T03:00:20.978Z,97.80
2019-01-15T03:02:52.394Z,97.80
2019-01-15T03:05:21.064Z,97.90
2019-01-15T03:07:49.711Z,97.80
2019-01-15T03:10:19.810Z,97.80
2019-01-15T03:12:54.847Z,97.70
2019-01-15T03:15:20.166Z,97.70
2019-01-15T03:17:48.804Z,97.80
2019-01-15T03:20:17.863Z,97.70
2019-01-15T03:22:46.550Z,97.80
2019-01-15T03:25:15.192Z,98.00
2019-01-15T03:27:45.453Z,97.80
2019-01-15T03:30:19.356Z,97.80
2019-01-15T03:32:48.075Z,97.90
2019-01-15T03:35:16.736Z,97.70
2019-01-15T03:37:45.384Z,97.50
2019-01-15T03:40:18.471Z,97.60
2019-01-15T03:42:47.091Z,97.70
2019-01-15T03:45:15.802Z,97.60
2019-01-15T03:47:44.449Z,97.60
2019-01-15T03:50:13.492Z,97.50
2019-01-15T03:52:42.140Z,97.60
2019-01-15T03:55:12.212Z,97.50
2019-01-15T03:57:40.906Z,97.40
2019-01-15T04:00:12.684Z,97.60
2019-01-15T04:02:41.431Z,97.40
2019-01-15T04:05:10.347Z,97.30
2019-01-15T04:07:39.365Z,97.20
2019-01-15T04:10:09.838Z,97.10
2019-01-15T04:12:38.443Z,97.10
2019-01-15T04:15:10.435Z,97.20
2019-01-15T04:17:39.895Z,97.30
2019-01-15T04:20:16.682Z,97.20
2019-01-15T04:22:46.909Z,97.30
2019-01-15T04:25:15.959Z,97.20
2019-01-15T04:27:45.617Z,97.10
2019-01-15T04:30:19.218Z,97.20
2019-01-15T04:32:50.577Z,97.40
2019-01-15T04:35:37.183Z,97.30
2019-01-15T04:38:05.911Z,97.30
2019-01-15T04:40:51.065Z,97.40
2019-01-15T04:43:20.170Z,97.00
2019-01-15T04:45:48.865Z,97.10
2019-01-15T04:48:17.506Z,97.20
2019-01-15T04:50:46.349Z,97.30
2019-01-15T04:53:15.049Z,97.30
2019-01-15T04:55:43.738Z,97.30
2019-01-15T04:58:22.350Z,97.20
2019-01-15T05:00:50.994Z,97.20
2019-01-15T05:03:21.227Z,97.10
2019-01-15T05:05:50.128Z,97.20
2019-01-15T05:08:23.265Z,97.20
2019-01-15T05:10:51.910Z,97.20
2019-01-15T05:13:27.179Z,97.30
2019-01-15T05:15:50.890Z,97.50
2019-01-15T05:18:19.693Z,97.30
2019-01-15T05:20:48.336Z,97.20
2019-01-15T05:23:19.938Z,97.20
2019-01-15T05:25:48.579Z,97.20
2019-01-15T05:28:18.779Z,96.90
2019-01-15T05:30:47.500Z,96.90
2019-01-15T05:33:17.888Z,97.10
2019-01-15T05:35:48.232Z,97.50
2019-01-15T05:38:16.846Z,97.20
2019-01-15T05:40:50.959Z,97.30
2019-01-15T05:43:19.893Z,97.10
2019-01-15T05:45:51.497Z,97.30
2019-01-15T05:48:26.704Z,97.40
2019-01-15T05:51:03.977Z,97.30
2019-01-15T05:53:35.883Z,97.40
2019-01-15T05:56:09.393Z,97.40
2019-01-15T05:58:37.970Z,97.10
2019-01-15T06:01:09.329Z,97.20
2019-01-15T06:03:37.982Z,97.20
2019-01-15T06:06:06.656Z,97.20
2019-01-15T06:08:36.939Z,97.30
2019-01-15T06:11:05.598Z,97.30
2019-01-15T06:13:34.270Z,97.30
2019-01-15T06:16:19.627Z,97.20
2019-01-15T06:19:00.672Z,96.90
2019-01-15T06:24:38.221Z,96.80
2019-01-15T06:27:06.994Z,96.90
2019-01-15T06:29:35.662Z,96.70
2019-01-15T06:32:04.433Z,96.50
2019-01-15T06:34:35.161Z,96.50
2019-01-15T06:37:03.493Z,96.40
2019-01-15T06:39:35.184Z,96.60
2019-01-15T06:42:04.564Z,96.30
2019-01-15T06:44:33.275Z,96.10
2019-01-15T06:47:01.929Z,96.10
2019-01-15T06:49:30.607Z,96.10
2019-01-15T06:52:08.627Z,96.10
2019-01-15T06:54:38.050Z,96.30
2019-01-15T06:57:06.806Z,96.40
2019-01-15T06:59:35.545Z,96.30
2019-01-15T07:02:05.730Z,96.00
2019-01-15T07:04:34.332Z,95.40
2019-01-15T07:07:03.082Z,95.30
2019-01-15T07:09:31.778Z,95.00
2019-01-15T07:12:00.458Z,94.90
2019-01-15T07:14:29.198Z,94.80
2019-01-15T07:16:57.834Z,94.20
2019-01-15T07:19:26.720Z,94.10
2019-01-15T07:21:55.506Z,94.50
2019-01-15T07:24:24.191Z,93.70
2019-01-15T07:26:52.854Z,93.60
2019-01-15T07:29:21.551Z,93.40
2019-01-15T07:31:50.175Z,93.20
2019-01-15T07:34:18.877Z,92.60
2019-01-15T07:36:49.169Z,92.20
2019-01-15T07:39:20.495Z,91.90
2019-01-15T07:41:49.199Z,91.30
2019-01-15T07:44:19.481Z,90.90
2019-01-15T07:46:48.142Z,90.90
2019-01-15T07:49:16.795Z,90.90
2019-01-15T07:51:45.568Z,90.70
2019-01-15T07:54:14.207Z,90.50
2019-01-15T07:56:42.907Z,90.10
2019-01-15T07:59:11.642Z,90.40
2019-01-15T08:01:40.929Z,90.80
2019-01-15T08:04:09.661Z,90.70
2019-01-15T08:06:38.516Z,91.00
2019-01-15T08:09:08.412Z,90.90
2019-01-15T08:11:37.396Z,91.00
2019-01-15T08:14:11.933Z,91.20
2019-01-15T08:16:39.526Z,91.50
2019-01-15T08:19:08.193Z,91.30
2019-01-15T08:21:36.829Z,91.60
2019-01-15T08:24:05.467Z,91.60
2019-01-15T08:26:36.851Z,92.00
2019-01-15T08:29:05.746Z,92.20
2019-01-15T08:31:34.450Z,92.00
2019-01-15T08:34:04.810Z,92.00
2019-01-15T08:36:33.459Z,92.00
2019-01-15T08:39:05.212Z,92.00
2019-01-15T08:41:36.740Z,92.00
2019-01-15T08:44:05.363Z,92.20
2019-01-15T08:46:34.045Z,92.30
2019-01-15T08:49:02.698Z,92.30
2019-01-15T08:51:31.566Z,92.30
2019-01-15T08:54:00.474Z,92.30
2019-01-15T08:56:29.279Z,92.90
2019-01-15T08:58:57.978Z,92.00
2019-01-15T09:01:26.672Z,90.60
2019-01-15T09:03:55.362Z,90.20
2019-01-15T09:06:24.126Z,90.30
2019-01-15T09:08:52.873Z,89.80
2019-01-15T09:11:21.529Z,90.20
2019-01-15T09:13:50.183Z,89.40
2019-01-15T09:16:20.418Z,89.80
2019-01-15T09:18:49.103Z,89.00
2019-01-15T09:21:18.556Z,89.90
2019-01-15T09:23:47.277Z,89.50
2019-01-15T09:26:15.936Z,89.40
2019-01-15T09:28:44.585Z,88.70
2019-01-15T09:31:13.886Z,87.50
2019-01-15T09:33:43.457Z,86.80
2019-01-15T09:36:14.858Z,87.50
2019-01-15T09:38:45.114Z,85.80
2019-01-15T09:41:15.126Z,86.80
2019-01-15T09:43:43.793Z,86.20
2019-01-15T09:46:12.514Z,85.30
2019-01-15T09:48:41.269Z,85.80
2019-01-15T09:51:09.866Z,86.50
2019-01-15T09:53:38.513Z,86.80
2019-01-15T09:56:07.183Z,87.60
2019-01-15T09:58:36.029Z,87.40
2019-01-15T10:01:04.706Z,86.40
2019-01-15T10:03:33.398Z,86.50
2019-01-15T10:06:02.078Z,86.40
2019-01-15T10:08:30.730Z,85.70
2019-01-15T10:10:59.371Z,86.80
2019-01-15T10:13:29.598Z,86.00
2019-01-15T10:15:59.312Z,85.10
2019-01-15T10:18:27.993Z,83.80
2019-01-15T10:20:57.468Z,84.50
2019-01-15T10:23:26.140Z,83.10
2019-01-15T10:25:54.804Z,83.90
2019-01-15T10:28:23.463Z,83.40
2019-01-15T10:31:07.063Z,83.10
2019-01-15T10:33:40.098Z,83.10
2019-01-15T10:36:07.700Z,83.80
2019-01-15T10:38:36.427Z,83.80
2019-01-15T10:41:05.146Z,83.80
2019-01-15T10:43:33.858Z,83.20
2019-01-15T10:46:02.902Z,83.60
2019-01-15T10:48:31.623Z,83.10
2019-01-15T10:51:00.273Z,82.60
2019-01-15T10:53:30.616Z,81.40
2019-01-15T10:55:59.309Z,81.20
2019-01-15T10:58:31.301Z,81.70
2019-01-15T11:01:22.028Z,81.20
2019-01-15T11:03:51.724Z,80.40
2019-01-15T11:06:20.400Z,79.20
2019-01-15T11:08:49.044Z,79.80
2019-01-15T11:11:19.644Z,80.30
2019-01-15T11:13:48.099Z,80.20
2019-01-15T11:16:16.742Z,79.70
2019-01-15T11:18:45.448Z,78.70
2019-01-15T11:21:15.714Z,80.00
2019-01-15T11:23:44.399Z,80.50
2019-01-15T11:26:13.154Z,80.60
2019-01-15T11:28:41.756Z,81.00
2019-01-15T11:31:10.437Z,81.00
2019-01-15T11:33:39.166Z,82.10
2019-01-15T11:36:22.776Z,81.80
2019-01-15T11:38:52.964Z,80.60
2019-01-15T11:41:26.312Z,80.70
2019-01-15T11:43:54.777Z,80.00
2019-01-15T11:46:23.634Z,80.00
2019-01-15T11:48:54.000Z,78.50
2019-01-15T11:51:22.648Z,78.10
2019-01-15T11:53:54.249Z,78.50
2019-01-15T11:56:25.024Z,80.10
2019-01-15T11:58:58.252Z,79.00
2019-01-15T12:01:29.970Z,79.80
2019-01-15T12:04:11.803Z,79.70
2019-01-15T12:09:34.008Z,78.60
2019-01-15T12:12:04.239Z,78.70
2019-01-15T12:14:34.539Z,79.20
2019-01-15T12:17:07.801Z,79.70
2019-01-15T12:19:38.097Z,80.10
2019-01-15T12:22:08.309Z,80.10
2019-01-15T12:24:47.253Z,80.10
2019-01-15T12:27:35.394Z,80.00
2019-01-15T12:30:07.898Z,78.80
2019-01-15T12:32:40.907Z,78.80
2019-01-15T12:35:27.356Z,77.80
2019-01-15T12:38:09.443Z,78.80
2019-01-15T12:40:48.525Z,78.50
2019-01-15T12:43:30.803Z,78.40
2019-01-15T12:46:01.039Z,78.20
2019-01-15T12:48:47.652Z,78.50
2019-01-15T12:51:17.882Z,78.40
2019-01-15T12:54:01.667Z,77.60
2019-01-15T12:56:40.794Z,78.30
2019-01-15T12:59:29.246Z,79.30
2019-01-15T13:02:10.089Z,79.60
2019-01-15T13:04:43.311Z,78.60
2019-01-15T13:07:16.321Z,79.70
2019-01-15T13:09:49.570Z,79.50
2019-01-15T13:12:19.897Z,79.50
2019-01-15T13:14:50.131Z,79.90
2019-01-15T13:17:23.360Z,80.80
2019-01-15T13:20:05.663Z,80.00
2019-01-15T13:22:38.650Z,81.40
2019-01-15T13:25:24.949Z,81.30
2019-01-15T13:28:11.265Z,80.80
2019-01-15T13:30:41.565Z,79.60
2019-01-15T13:33:12.971Z,79.20
2019-01-15T13:35:46.297Z,83.20
2019-01-15T13:38:16.525Z,80.10
2019-01-15T13:40:52.853Z,78.60
2019-01-15T13:43:42.589Z,75.40
2019-01-15T13:46:12.822Z,75.10
2019-01-15T13:48:45.559Z,77.20
2019-01-15T13:51:21.740Z,75.80
2019-01-15T13:53:53.333Z,77.20
2019-01-15T13:56:23.585Z,77.00
2019-01-15T13:58:59.658Z,77.80
2019-01-15T14:01:32.488Z,78.50
2019-01-15T14:04:04.300Z,78.80
2019-01-15T14:06:35.476Z,78.50
2019-01-15T14:09:10.072Z,78.90
2019-01-15T14:11:43.084Z,78.30
2019-01-15T14:14:20.495Z,78.40
2019-01-15T14:16:59.266Z,79.20
2019-01-15T14:19:35.205Z,79.30
2019-01-15T14:22:06.055Z,79.20
2019-01-15T14:24:36.402Z,79.80
2019-01-15T14:27:15.440Z,80.00
2019-01-15T14:29:45.660Z,80.20
2019-01-15T14:32:18.468Z,80.00
2019-01-15T14:34:54.433Z,80.00
2019-01-15T14:37:30.281Z,80.00
2019-01-15T14:40:00.558Z,80.00
2019-01-15T14:42:36.774Z,79.60
2019-01-15T14:45:09.800Z,79.70
2019-01-15T14:47:49.020Z,79.90
2019-01-15T14:50:31.157Z,80.30
2019-01-15T14:53:17.665Z,79.70
2019-01-15T14:55:56.846Z,79.60
2019-01-15T14:58:32.773Z,79.90
2019-01-15T15:01:05.721Z,79.60
2019-01-15T15:03:41.700Z,79.60
2019-01-15T15:06:11.982Z,79.90
2019-01-15T15:08:58.554Z,80.40
2019-01-15T15:11:34.843Z,80.20
2019-01-15T15:14:07.072Z,80.60
2019-01-15T15:16:37.330Z,80.80
2019-01-15T15:19:07.552Z,80.50
2019-01-15T15:21:55.389Z,80.60
2019-01-15T15:24:25.646Z,81.20
2019-01-15T15:27:04.853Z,80.60
2019-01-15T15:29:41.078Z,80.50
2019-01-15T15:32:17.006Z,80.40
2019-01-15T15:34:47.249Z,80.50
2019-01-15T15:37:20.440Z,80.50
2019-01-15T15:40:06.981Z,80.60
2019-01-15T15:42:39.924Z,80.60
2019-01-15T15:45:26.714Z,80.80
2019-01-15T15:47:56.906Z,81.40
2019-01-15T15:50:33.253Z,81.50
2019-01-15T15:53:12.299Z,81.10
2019-01-15T15:55:57.812Z,81.30
2019-01-15T15:58:43.238Z,81.40
2019-01-15T16:01:44.458Z,82.20
2019-01-15T16:04:18.883Z,82.60
2019-01-15T16:07:07.394Z,81.70
2019-01-15T16:09:43.377Z,81.90
2019-01-15T16:12:19.058Z,81.90
2019-01-15T16:15:05.520Z,81.80
2019-01-15T16:17:39.900Z,82.50
2019-01-15T16:20:10.941Z,82.50
2019-01-15T16:22:41.157Z,82.60
2019-01-15T16:25:18.300Z,82.40
2019-01-15T16:27:54.229Z,82.10
2019-01-15T16:30:27.152Z,82.00
2019-01-15T16:32:57.402Z,82.20
2019-01-15T16:35:27.622Z,82.60
2019-01-15T16:38:00.905Z,82.60
2019-01-15T16:40:34.282Z,82.00
2019-01-15T16:43:07.475Z,82.20
2019-01-15T16:45:40.601Z,82.40
2019-01-15T16:48:15.331Z,82.50
2019-01-15T16:50:52.695Z,82.40
2019-01-15T16:53:38.670Z,82.50
2019-01-15T16:56:20.547Z,82.50
2019-01-15T16:58:53.468Z,82.70
2019-01-15T17:01:26.239Z,83.30
2019-01-15T17:04:12.608Z,82.90
2019-01-15T17:06:49.216Z,82.90
2019-01-15T17:09:22.426Z,83.30
2019-01-15T17:11:52.755Z,83.60
2019-01-15T17:14:39.916Z,83.80
2019-01-15T17:17:39.428Z,84.00
2019-01-15T17:20:19.890Z,84.30
2019-01-15T17:22:59.876Z,84.60
2019-01-15T17:26:03.621Z,83.80
2019-01-15T17:28:40.471Z,83.40
2019-01-15T17:31:27.605Z,83.30
2019-01-15T17:34:26.225Z,83.30
2019-01-15T17:36:56.575Z,83.30
2019-01-15T17:39:26.873Z,83.20
2019-01-15T17:42:26.602Z,83.70
2019-01-15T17:44:56.900Z,83.80
2019-01-15T17:50:43.410Z,84.40
2019-01-15T17:53:18.759Z,84.60
2019-01-15T17:55:52.145Z,84.60
2019-01-15T17:58:39.391Z,84.30
2019-01-15T18:01:09.645Z,84.70
2019-01-15T18:04:04.300Z,84.70
2019-01-15T18:06:36.316Z,85.10
2019-01-15T18:09:14.520Z,84.90
2019-01-15T18:12:13.277Z,85.10
2019-01-15T18:14:43.689Z,85.30
2019-01-15T18:17:28.667Z,85.20
2019-01-15T18:23:15.432Z,85.50
2019-01-15T18:29:05.612Z,86.10
2019-01-15T18:31:44.892Z,86.30
2019-01-15T18:34:24.287Z,86.40
2019-01-15T18:37:10.885Z,86.20
2019-01-15T18:39:45.750Z,86.30
2019-01-15T18:42:32.001Z,86.90
2019-01-15T18:45:19.561Z,86.60
2019-01-15T18:47:52.522Z,87.30
2019-01-15T18:50:41.916Z,86.90
2019-01-15T18:53:44.506Z,86.90
2019-01-15T18:56:17.488Z,87.20
2019-01-15T18:58:50.752Z,87.30
2019-01-15T19:01:26.773Z,87.20
2019-01-15T19:04:01.480Z,87.60
2019-01-15T19:06:34.271Z,87.80
2019-01-15T19:09:07.251Z,87.60
2019-01-15T19:11:52.668Z,87.30
2019-01-15T19:14:25.962Z,87.30
2019-01-15T19:17:15.164Z,87.30
2019-01-15T19:22:49.229Z,86.80
2019-01-15T19:25:19.512Z,86.60
2019-01-15T19:28:12.042Z,86.20
2019-01-15T19:30:45.252Z,86.70
2019-01-15T19:33:21.840Z,86.00
2019-01-15T19:35:54.964Z,85.60
2019-01-15T19:38:25.193Z,85.80
2019-01-15T19:40:55.553Z,86.10
2019-01-15T19:43:48.711Z,86.10
2019-01-15T19:46:27.733Z,86.20
2019-01-15T19:49:04.248Z,86.20
2019-01-15T19:51:43.154Z,85.60
2019-01-15T19:54:21.842Z,86.00
2019-01-15T19:56:54.934Z,85.70
2019-01-15T19:59:41.391Z,85.80
2019-01-15T20:02:27.651Z,85.60
2019-01-15T20:05:13.917Z,85.30
2019-01-15T20:08:00.254Z,85.50
2019-01-15T20:10:33.220Z,86.00
2019-01-15T20:13:42.040Z,85.90
2019-01-15T20:16:00.146Z,86.00
2019-01-15T20:18:49.377Z,85.40
2019-01-15T20:24:30.210Z,85.10
2019-01-15T20:27:03.198Z,85.00
2019-01-15T20:29:48.238Z,84.80
2019-01-15T20:32:38.775Z,83.90
2019-01-15T20:35:18.663Z,83.30
2019-01-15T20:37:52.106Z,83.30
2019-01-15T20:40:38.477Z,83.20
2019-01-15T20:43:24.225Z,82.90
2019-01-15T20:46:11.289Z,83.10
2019-01-15T20:48:55.801Z,82.80
2019-01-15T20:51:54.998Z,83.20
2019-01-15T20:57:33.348Z,83.60
2019-01-15T21:03:09.180Z,83.40
2019-01-15T21:05:39.415Z,83.20
2019-01-15T21:08:09.727Z,83.30
2019-01-15T21:10:56.177Z,83.30
2019-01-15T21:13:41.259Z,83.50
2019-01-15T21:16:27.547Z,84.00
2019-01-15T21:19:00.470Z,83.70
2019-01-15T21:21:46.900Z,83.90
2019-01-15T21:24:35.045Z,83.60
2019-01-15T21:27:10.945Z,84.00
2019-01-15T21:29:46.906Z,83.80
2019-01-15T21:32:28.949Z,84.00
2019-01-15T21:35:02.384Z,83.70
2019-01-15T21:37:32.649Z,84.30
2019-01-15T21:40:08.658Z,83.90
2019-01-15T21:42:41.648Z,90.20
2019-01-15T21:45:28.354Z,88.50
2019-01-15T21:48:01.315Z,89.80
2019-01-15T21:50:37.547Z,85.80
2019-01-15T21:53:07.831Z,78.40
2019-01-15T21:55:38.034Z,80.00
2019-01-15T21:58:15.377Z,81.40
2019-01-15T22:00:51.529Z,83.00
2019-01-15T22:03:37.465Z,83.90
2019-01-15T22:06:25.617Z,84.40
2019-01-15T22:08:58.351Z,86.00
2019-01-15T22:11:34.243Z,85.90
2019-01-15T22:14:20.481Z,85.40
2019-01-15T22:16:50.717Z,90.20
2019-01-15T22:19:32.863Z,88.00
2019-01-15T22:22:08.826Z,86.30
2019-01-15T22:24:57.125Z,80.60
2019-01-15T22:27:29.807Z,80.60
2019-01-15T22:30:02.906Z,81.50
2019-01-15T22:32:49.289Z,82.40
2019-01-15T22:35:19.557Z,83.00
2019-01-15T22:37:52.767Z,83.40
2019-01-15T22:40:25.690Z,83.90
2019-01-15T22:42:56.006Z,84.60
2019-01-15T22:45:26.217Z,85.40
2019-01-15T22:47:56.494Z,86.30
2019-01-15T22:50:29.186Z,85.80
2019-01-15T22:52:59.471Z,85.90
2019-01-15T22:55:32.695Z,86.10
2019-01-15T22:58:02.965Z,85.80
2019-01-15T23:00:52.143Z,85.70
2019-01-15T23:03:22.411Z,86.00
2019-01-15T23:05:52.690Z,86.00
2019-01-15T23:08:25.727Z,86.10
2019-01-15T23:11:11.969Z,86.20
2019-01-15T23:13:42.353Z,85.90
2019-01-15T23:16:12.588Z,86.20
2019-01-15T23:18:42.840Z,87.30
2019-01-15T23:21:25.310Z,87.00
2019-01-15T23:24:04.259Z,87.80
2019-01-15T23:26:40.225Z,87.60
2019-01-15T23:29:10.556Z,88.00
2019-01-15T23:31:46.686Z,88.80
2019-01-15T23:34:17.049Z,88.40
2019-01-15T23:37:03.277Z,89.70
2019-01-15T23:39:49.572Z,89.90
2019-01-15T23:42:28.659Z,89.40
2019-01-15T23:44:58.889Z,89.20
2019-01-15T23:47:31.586Z,89.70
2019-01-15T23:50:04.424Z,90.10
2019-01-15T23:52:40.153Z,90.00
2019-01-15T23:55:10.918Z,90.20
2019-01-15T23:57:47.201Z,90.00
